Time;durP1;ratioP1;P1;durP2;ratioP2;P2;SDS_P1;SDS_P2;PMS_P1;PMS_P2;Temp;Humidity;BMP_temperature;BMP_pressure;BME280_temperature;BME280_humidity;BME280_pressure;Samples;Min_cycle;Max_cycle;Signal;HPM_P1;HPM_P2
2024/01/03 00:01:34;;;;;;;5.43;1.10;;;11.40;82.60;;;;;;5003498;28;20532;-78
2024/01/03 00:04:03;;;;;;;3.40;0.87;;;11.30;82.60;;;;;;5007504;28;20527;-78
2024/01/03 00:06:34;;;;;;;3.50;0.80;;;11.30;82.70;;;;;;5009964;28;20466;-78
2024/01/03 00:09:04;;;;;;;4.20;0.90;;;11.30;82.70;;;;;;5008337;28;20543;-77
2024/01/03 00:11:34;;;;;;;6.40;0.90;;;11.30;82.70;;;;;;5015298;28;20803;-78
2024/01/03 00:14:23;;;;;;;4.20;1.00;;;11.30;82.80;;;;;;5014459;28;20453;-78
2024/01/03 00:16:53;;;;;;;5.43;1.10;;;11.30;82.80;;;;;;5006848;28;20448;-78
2024/01/03 00:19:22;;;;;;;3.50;0.90;;;11.30;82.80;;;;;;5003512;28;20480;-78
2024/01/03 00:21:51;;;;;;;4.40;0.90;;;11.30;82.80;;;;;;5013598;28;20460;-77
2024/01/03 00:24:21;;;;;;;3.20;0.77;;;11.30;82.90;;;;;;5009069;28;20686;-78
2024/01/03 00:26:50;;;;;;;4.90;0.87;;;11.30;82.90;;;;;;5001847;28;20444;-77
2024/01/03 00:29:48;;;;;;;3.50;0.70;;;11.30;82.90;;;;;;5010518;28;20499;-77
2024/01/03 00:32:16;;;;;;;3.93;0.80;;;11.30;82.80;;;;;;5013970;28;20481;-78
2024/01/03 00:34:48;;;;;;;3.70;0.90;;;11.20;82.80;;;;;;5010306;28;20546;-78
2024/01/03 00:37:34;;;;;;;5.30;1.10;;;11.30;82.80;;;;;;5012505;28;20456;-78
2024/01/03 00:40:20;;;;;;;4.70;1.10;;;11.20;82.90;;;;;;5008131;28;20483;-77
2024/01/03 00:42:48;;;;;;;3.97;0.97;;;11.20;82.90;;;;;;5023175;28;20468;-78
2024/01/03 00:45:18;;;;;;;3.20;0.77;;;11.20;82.90;;;;;;5007756;28;20474;-77
2024/01/03 00:47:46;;;;;;;4.43;1.13;;;11.30;82.70;;;;;;5007812;28;20456;-78
2024/01/03 00:50:15;;;;;;;4.90;0.93;;;11.30;82.60;;;;;;5006823;28;20477;-78
2024/01/03 00:52:43;;;;;;;5.87;0.90;;;11.30;82.60;;;;;;5009592;28;20460;-79
2024/01/03 00:55:14;;;;;;;3.83;1.07;;;11.30;82.50;;;;;;5010094;28;20449;-78
2024/01/03 00:57:42;;;;;;;3.60;0.80;;;11.30;82.40;;;;;;5011520;28;20877;-78
2024/01/03 01:00:11;;;;;;;4.57;1.30;;;11.30;82.40;;;;;;5008513;28;20556;-78
2024/01/03 01:02:39;;;;;;;3.50;1.00;;;11.30;82.30;;;;;;5022700;28;20461;-78
2024/01/03 01:05:08;;;;;;;3.20;0.70;;;11.30;82.20;;;;;;5005324;28;20539;-78
2024/01/03 01:07:36;;;;;;;6.20;1.20;;;11.30;82.00;;;;;;5007245;28;20463;-80
2024/01/03 01:10:04;;;;;;;3.40;0.53;;;11.30;81.90;;;;;;5010752;28;20445;-80
2024/01/03 01:12:34;;;;;;;3.40;0.70;;;11.30;81.50;;;;;;5017251;28;20455;-80
2024/01/03 01:15:02;;;;;;;5.50;1.00;;;11.30;81.50;;;;;;5020432;28;20456;-80
2024/01/03 01:17:30;;;;;;;4.27;1.10;;;11.30;81.40;;;;;;5009425;28;21110;-79
2024/01/03 01:19:58;;;;;;;7.50;0.90;;;11.30;81.30;;;;;;5022202;28;20588;-80
2024/01/03 01:22:29;;;;;;;6.50;0.97;;;11.30;81.10;;;;;;5014217;28;20471;-80
2024/01/03 01:24:58;;;;;;;3.73;0.60;;;11.30;81.00;;;;;;5012969;28;20456;-80
2024/01/03 01:27:26;;;;;;;3.67;0.80;;;11.30;80.90;;;;;;5010449;28;20563;-80
2024/01/03 01:29:55;;;;;;;5.30;0.80;;;11.30;80.70;;;;;;5009778;28;20464;-80
2024/01/03 01:32:24;;;;;;;3.37;0.77;;;11.20;80.70;;;;;;5014399;28;20472;-80
2024/01/03 01:34:52;;;;;;;4.53;1.00;;;11.30;80.80;;;;;;5014623;28;20491;-80
2024/01/03 01:37:21;;;;;;;4.10;0.83;;;11.20;80.70;;;;;;5014814;28;20445;-80
2024/01/03 01:39:49;;;;;;;4.00;0.60;;;11.20;80.60;;;;;;5011497;28;21107;-79
2024/01/03 01:42:17;;;;;;;2.90;0.50;;;11.30;80.50;;;;;;5011458;28;20519;-80
2024/01/03 01:44:45;;;;;;;2.73;0.50;;;11.20;80.50;;;;;;5012032;28;20499;-80
2024/01/03 01:47:15;;;;;;;3.83;0.77;;;11.20;80.50;;;;;;5017110;28;20456;-80
2024/01/03 01:49:43;;;;;;;3.60;0.80;;;11.20;80.50;;;;;;5015552;28;20430;-80
2024/01/03 01:52:13;;;;;;;3.60;0.40;;;11.20;80.50;;;;;;5021429;28;20462;-80
2024/01/03 01:54:42;;;;;;;3.47;0.80;;;11.10;80.60;;;;;;5009571;28;20450;-80
2024/01/03 01:57:11;;;;;;;3.97;0.50;;;11.10;80.50;;;;;;5012260;28;20460;-80
2024/01/03 01:59:41;;;;;;;3.30;0.60;;;11.10;80.60;;;;;;5009162;28;20524;-78
2024/01/03 02:02:10;;;;;;;3.00;0.60;;;11.10;80.70;;;;;;5024162;28;20971;-78
2024/01/03 02:04:40;;;;;;;4.27;0.90;;;11.10;80.70;;;;;;5004918;28;20914;-78
2024/01/03 02:07:09;;;;;;;3.70;0.57;;;11.10;80.80;;;;;;5013577;28;20465;-78
2024/01/03 02:09:37;;;;;;;2.97;0.50;;;11.10;80.80;;;;;;5002828;28;20450;-78
2024/01/03 02:12:05;;;;;;;2.97;0.60;;;11.00;80.90;;;;;;5006362;28;20493;-78
2024/01/03 02:14:33;;;;;;;6.00;0.80;;;11.00;81.00;;;;;;5006394;28;20457;-78
2024/01/03 02:17:02;;;;;;;6.17;1.07;;;11.00;81.10;;;;;;5000485;28;20464;-78
2024/01/03 02:19:30;;;;;;;4.13;0.83;;;10.90;81.20;;;;;;5002746;28;20687;-78
2024/01/03 02:22:00;;;;;;;3.90;0.60;;;10.90;81.20;;;;;;5003038;28;20532;-77
2024/01/03 02:24:28;;;;;;;3.27;0.83;;;10.90;81.30;;;;;;5013899;28;20501;-77
2024/01/03 02:26:56;;;;;;;3.30;0.77;;;10.90;81.40;;;;;;5001633;28;20460;-77
2024/01/03 02:29:24;;;;;;;4.73;1.17;;;10.90;81.40;;;;;;5022039;28;20522;-77
2024/01/03 02:31:52;;;;;;;4.50;0.77;;;10.90;81.60;;;;;;5002046;28;20544;-78
2024/01/03 02:34:20;;;;;;;4.43;1.00;;;10.90;81.60;;;;;;5008038;28;20456;-79
2024/01/03 02:36:51;;;;;;;3.00;0.60;;;10.90;81.60;;;;;;5025081;28;20459;-78
2024/01/03 02:39:20;;;;;;;3.50;0.70;;;10.90;81.70;;;;;;5006207;28;20549;-77
2024/01/03 02:41:48;;;;;;;3.93;0.93;;;10.90;81.70;;;;;;5001072;28;20460;-77
2024/01/03 02:44:16;;;;;;;7.20;1.00;;;10.80;81.80;;;;;;5001331;28;20461;-77
2024/01/03 02:46:44;;;;;;;3.50;0.90;;;10.80;81.90;;;;;;5007520;28;20495;-79
2024/01/03 02:49:12;;;;;;;5.87;0.97;;;10.80;81.90;;;;;;5005076;28;20832;-79
2024/01/03 02:51:40;;;;;;;8.37;1.40;;;10.80;82.00;;;;;;5008274;28;20452;-79
2024/01/03 02:54:08;;;;;;;4.40;1.00;;;10.80;82.00;;;;;;5010542;28;20521;-78
2024/01/03 02:56:40;;;;;;;4.13;1.27;;;10.90;81.90;;;;;;5003550;28;20449;-78
2024/01/03 02:59:08;;;;;;;5.70;1.37;;;10.90;81.90;;;;;;5019008;28;20472;-78
2024/01/03 03:01:36;;;;;;;5.40;1.10;;;10.90;81.80;;;;;;5007834;28;20567;-78
2024/01/03 03:04:04;;;;;;;4.97;1.23;;;10.90;81.80;;;;;;5007607;28;20524;-78
2024/01/03 03:06:32;;;;;;;6.17;1.40;;;10.80;81.80;;;;;;5008404;28;20563;-78
2024/01/03 03:09:00;;;;;;;7.83;1.53;;;10.80;81.90;;;;;;5005692;28;20538;-78
2024/01/03 03:11:51;;;;;;;8.17;1.40;;;10.80;81.80;;;;;;5008081;28;20465;-77
2024/01/03 03:14:20;;;;;;;6.00;1.00;;;10.90;81.90;;;;;;5012584;28;20480;-78
2024/01/03 03:16:48;;;;;;;4.93;1.30;;;10.90;81.80;;;;;;5005625;28;20460;-78
2024/01/03 03:19:16;;;;;;;8.10;1.60;;;10.90;81.80;;;;;;5005007;28;20460;-78
2024/01/03 03:21:44;;;;;;;4.47;1.03;;;10.90;81.80;;;;;;5004035;28;20485;-78
2024/01/03 03:24:12;;;;;;;6.50;1.67;;;10.90;81.80;;;;;;5006209;28;20921;-78
2024/01/03 03:26:40;;;;;;;6.97;1.20;;;10.90;81.80;;;;;;5012020;28;20456;-78
2024/01/03 03:29:09;;;;;;;8.43;1.53;;;10.90;81.90;;;;;;5008792;28;20789;-78
2024/01/03 03:31:39;;;;;;;5.33;1.00;;;10.90;81.90;;;;;;5004515;28;20967;-78
2024/01/03 03:34:06;;;;;;;7.57;1.80;;;10.90;82.00;;;;;;5011788;28;20449;-78
2024/01/03 03:36:36;;;;;;;6.07;1.70;;;10.90;82.10;;;;;;5007792;28;20461;-78
2024/01/03 03:39:07;;;;;;;9.33;1.60;;;10.90;82.10;;;;;;5012542;28;20976;-78
2024/01/03 03:41:36;;;;;;;5.17;1.63;;;10.90;82.30;;;;;;5008748;28;20479;-78
2024/01/03 03:44:04;;;;;;;7.53;1.30;;;10.90;82.30;;;;;;5014712;28;20516;-78
2024/01/03 03:46:34;;;;;;;6.70;1.63;;;10.80;82.40;;;;;;5007386;28;20457;-78
2024/01/03 03:49:02;;;;;;;6.30;1.30;;;10.80;82.60;;;;;;5006686;28;20453;-78
2024/01/03 03:51:30;;;;;;;5.83;1.47;;;10.80;82.70;;;;;;5010000;28;20917;-78
2024/01/03 03:53:59;;;;;;;8.23;1.30;;;10.70;82.90;;;;;;5007034;28;20460;-77
2024/01/03 03:56:29;;;;;;;3.10;0.80;;;10.70;83.00;;;;;;5006023;28;20506;-77
2024/01/03 03:58:58;;;;;;;5.27;0.90;;;10.70;83.00;;;;;;5001507;28;20519;-77
2024/01/03 04:01:26;;;;;;;4.80;1.10;;;10.70;83.00;;;;;;5017764;28;20464;-77
2024/01/03 04:03:55;;;;;;;5.20;0.90;;;10.70;83.00;;;;;;5013291;28;20459;-77
2024/01/03 04:06:23;;;;;;;9.80;1.40;;;10.60;83.10;;;;;;5003890;28;20534;-77
2024/01/03 04:08:51;;;;;;;4.47;1.10;;;10.60;83.00;;;;;;5005067;28;20460;-77
2024/01/03 04:11:19;;;;;;;8.80;1.40;;;10.60;83.00;;;;;;5004791;28;20466;-77
2024/01/03 04:13:47;;;;;;;3.93;0.97;;;10.60;83.10;;;;;;5000525;28;20461;-77
2024/01/03 04:16:15;;;;;;;3.60;0.83;;;10.60;83.10;;;;;;5005090;28;20465;-78
2024/01/03 04:18:43;;;;;;;7.33;1.33;;;10.60;83.00;;;;;;5011603;28;20453;-78
2024/01/03 04:21:13;;;;;;;5.47;0.97;;;10.60;83.00;;;;;;5004354;28;20500;-77
2024/01/03 04:23:41;;;;;;;5.67;1.13;;;10.60;83.00;;;;;;5005943;28;20456;-77
2024/01/03 04:26:09;;;;;;;4.83;1.20;;;10.60;82.90;;;;;;5006115;28;20983;-77
2024/01/03 04:28:37;;;;;;;6.27;1.40;;;10.60;82.80;;;;;;5001608;28;20465;-77
2024/01/03 04:31:05;;;;;;;5.80;1.07;;;10.60;82.70;;;;;;5004582;28;20464;-77
2024/01/03 04:33:33;;;;;;;7.33;1.60;;;10.60;82.70;;;;;;5009862;28;20465;-77
2024/01/03 04:36:01;;;;;;;5.47;1.13;;;10.60;82.80;;;;;;5006552;28;20467;-77
2024/01/03 04:38:30;;;;;;;6.70;2.50;;;10.50;82.60;;;;;;5009849;28;20494;-77
2024/01/03 04:40:58;;;;;;;6.43;1.20;;;10.50;82.60;;;;;;5008932;28;20976;-77
2024/01/03 04:43:26;;;;;;;4.70;0.70;;;10.50;82.60;;;;;;5008845;28;20463;-78
2024/01/03 04:45:54;;;;;;;4.70;1.10;;;10.50;82.80;;;;;;5005746;28;20456;-77
2024/01/03 04:48:24;;;;;;;4.90;1.00;;;10.50;82.60;;;;;;5017586;28;20441;-80
2024/01/03 04:50:52;;;;;;;5.17;0.97;;;10.50;82.60;;;;;;5017188;28;20468;-80
2024/01/03 04:53:20;;;;;;;4.93;0.90;;;10.50;82.60;;;;;;5014137;28;20483;-78
2024/01/03 04:55:50;;;;;;;6.00;1.30;;;10.50;82.60;;;;;;5007864;28;20527;-79
2024/01/03 04:58:18;;;;;;;5.07;1.27;;;10.60;82.60;;;;;;5003533;28;20930;-78
2024/01/03 05:00:46;;;;;;;4.53;1.00;;;10.60;82.60;;;;;;5002442;28;20486;-78
2024/01/03 05:03:14;;;;;;;5.93;1.17;;;10.60;82.60;;;;;;5009312;28;20482;-77
2024/01/03 05:05:42;;;;;;;5.53;1.27;;;10.60;82.80;;;;;;5006605;28;20506;-77
2024/01/03 05:08:10;;;;;;;7.00;1.30;;;10.60;82.80;;;;;;5004722;28;20457;-77
2024/01/03 05:10:38;;;;;;;4.67;1.00;;;10.50;82.90;;;;;;5008614;28;20488;-77
2024/01/03 05:13:08;;;;;;;7.13;1.03;;;10.50;83.10;;;;;;5010335;28;20465;-79
2024/01/03 05:15:36;;;;;;;12.43;1.40;;;10.50;83.10;;;;;;5006422;28;20978;-80
2024/01/03 05:18:04;;;;;;;8.33;2.03;;;10.50;83.20;;;;;;5012762;28;20519;-79
2024/01/03 05:20:32;;;;;;;6.10;1.50;;;10.50;83.30;;;;;;5011694;28;20491;-80
2024/01/03 05:23:04;;;;;;;11.77;1.63;;;10.50;83.40;;;;;;5009869;28;20485;-80
2024/01/03 05:25:32;;;;;;;11.00;2.13;;;10.50;83.40;;;;;;5009052;28;21025;-79
2024/01/03 05:28:02;;;;;;;9.27;1.60;;;10.50;83.40;;;;;;5012418;28;20935;-80
2024/01/03 05:30:35;;;;;;;5.67;1.33;;;10.50;83.40;;;;;;5012557;28;20495;-80
2024/01/03 05:33:03;;;;;;;7.87;2.00;;;10.50;83.40;;;;;;5015666;28;20796;-80
2024/01/03 05:35:33;;;;;;;6.13;1.60;;;10.50;83.40;;;;;;5024020;28;20495;-79
2024/01/03 05:38:01;;;;;;;6.20;1.37;;;10.50;83.40;;;;;;5022879;28;20465;-80
2024/01/03 05:40:30;;;;;;;5.60;1.40;;;10.50;83.30;;;;;;5014496;28;20823;-79
2024/01/03 05:42:58;;;;;;;8.17;1.80;;;10.50;83.40;;;;;;5011376;28;20481;-79
2024/01/03 05:45:26;;;;;;;13.00;2.13;;;10.50;83.30;;;;;;5012053;28;20548;-78
2024/01/03 05:47:56;;;;;;;7.97;1.70;;;10.50;83.30;;;;;;5013389;28;20979;-78
2024/01/03 05:50:25;;;;;;;9.30;1.40;;;10.60;83.20;;;;;;5012070;28;20457;-79
2024/01/03 05:52:53;;;;;;;10.70;1.77;;;10.50;83.10;;;;;;5011363;28;20552;-78
2024/01/03 05:55:21;;;;;;;8.80;1.43;;;10.60;83.10;;;;;;5013806;28;20475;-78
2024/01/03 05:57:49;;;;;;;7.40;1.93;;;10.60;82.90;;;;;;5017548;28;20488;-77
2024/01/03 06:00:18;;;;;;;10.10;1.93;;;10.50;83.00;;;;;;5006812;28;21027;-78
2024/01/03 06:02:46;;;;;;;6.23;1.70;;;10.60;82.90;;;;;;5011595;28;20477;-79
2024/01/03 06:05:18;;;;;;;9.93;2.20;;;10.50;82.80;;;;;;5003479;28;20520;-77
2024/01/03 06:07:47;;;;;;;11.50;2.37;;;10.50;82.80;;;;;;5006402;28;20454;-78
2024/01/03 06:10:15;;;;;;;7.90;1.70;;;10.50;82.80;;;;;;5004705;28;20436;-77
2024/01/03 06:12:43;;;;;;;9.60;1.80;;;10.50;82.80;;;;;;5020870;28;20477;-77
2024/01/03 06:15:11;;;;;;;9.00;2.10;;;10.50;82.60;;;;;;5018043;28;20468;-77
2024/01/03 06:17:39;;;;;;;9.60;2.07;;;10.50;82.50;;;;;;5010221;28;20933;-78
2024/01/03 06:20:09;;;;;;;6.60;1.47;;;10.50;82.50;;;;;;5008147;28;20456;-78
2024/01/03 06:22:38;;;;;;;7.37;2.20;;;10.50;82.40;;;;;;5011902;28;20489;-77
2024/01/03 06:25:07;;;;;;;9.80;2.00;;;10.50;82.40;;;;;;5001939;28;20456;-77
2024/01/03 06:27:36;;;;;;;8.13;1.67;;;10.50;82.40;;;;;;5021659;28;20503;-77
2024/01/03 06:30:06;;;;;;;8.27;2.10;;;10.50;82.40;;;;;;5014607;28;20467;-78
2024/01/03 06:32:34;;;;;;;10.67;1.73;;;10.50;82.30;;;;;;5006742;28;20489;-79
2024/01/03 06:35:02;;;;;;;7.37;2.43;;;10.50;82.30;;;;;;5008053;28;20502;-78
2024/01/03 06:37:30;;;;;;;6.67;2.23;;;10.50;82.30;;;;;;5012788;28;20457;-78
2024/01/03 06:40:00;;;;;;;11.27;2.60;;;10.50;82.30;;;;;;5010701;28;20556;-78
2024/01/03 06:42:27;;;;;;;14.30;2.17;;;10.50;82.30;;;;;;5015317;28;20492;-78
2024/01/03 06:44:55;;;;;;;7.67;1.53;;;10.50;82.30;;;;;;5013890;28;20537;-78
2024/01/03 06:47:23;;;;;;;9.70;1.70;;;10.50;82.20;;;;;;4997944;28;20461;-78
2024/01/03 06:49:52;;;;;;;13.73;2.40;;;10.50;82.20;;;;;;5007480;28;20548;-78
2024/01/03 06:52:20;;;;;;;7.20;1.80;;;10.50;82.20;;;;;;5007351;28;20469;-77
2024/01/03 06:54:49;;;;;;;7.83;1.50;;;10.50;82.20;;;;;;5005565;28;20470;-79
2024/01/03 06:57:19;;;;;;;10.00;1.90;;;10.50;82.20;;;;;;5007395;28;20448;-80
2024/01/03 06:59:47;;;;;;;13.37;2.50;;;10.60;82.10;;;;;;5005994;28;20457;-78
2024/01/03 07:02:15;;;;;;;6.93;2.20;;;10.60;82.10;;;;;;5002878;28;21028;-78
2024/01/03 07:04:43;;;;;;;14.00;2.10;;;10.60;82.10;;;;;;5002408;28;20551;-78
2024/01/03 07:07:12;;;;;;;7.43;2.00;;;10.60;82.10;;;;;;5020523;28;20712;-80
2024/01/03 07:09:40;;;;;;;11.83;2.37;;;10.60;82.10;;;;;;5006214;28;20566;-79
2024/01/03 07:12:09;;;;;;;11.23;1.73;;;10.60;82.10;;;;;;5007803;28;20455;-78
2024/01/03 07:14:38;;;;;;;7.73;1.70;;;10.60;82.10;;;;;;5010631;28;20518;-78
2024/01/03 07:17:09;;;;;;;10.90;1.80;;;10.60;82.00;;;;;;5012700;28;20476;-80
2024/01/03 07:19:37;;;;;;;9.13;1.80;;;10.70;81.90;;;;;;5005460;28;20460;-79
2024/01/03 07:22:05;;;;;;;7.73;1.60;;;10.70;81.90;;;;;;5003736;28;21420;-77
2024/01/03 07:24:35;;;;;;;14.13;2.00;;;10.70;81.80;;;;;;4999602;28;20462;-77
2024/01/03 07:27:03;;;;;;;9.50;2.00;;;10.70;81.80;;;;;;5000567;28;22400;-79
2024/01/03 07:29:31;;;;;;;8.73;1.70;;;10.80;81.70;;;;;;5007941;28;20462;-78
2024/01/03 07:32:01;;;;;;;11.20;2.30;;;10.80;81.70;;;;;;5005385;28;20503;-79
2024/01/03 07:34:29;;;;;;;13.23;2.40;;;10.80;81.70;;;;;;5004260;28;20463;-77
2024/01/03 07:36:57;;;;;;;7.60;1.97;;;10.80;81.60;;;;;;5005487;28;20555;-77
2024/01/03 07:39:26;;;;;;;8.83;2.33;;;10.80;81.60;;;;;;5003515;28;21059;-77
2024/01/03 07:41:54;;;;;;;7.17;2.10;;;10.80;81.40;;;;;;5001875;28;20468;-77
2024/01/03 07:44:22;;;;;;;9.80;1.80;;;10.80;81.50;;;;;;5001870;28;20516;-78
2024/01/03 07:46:50;;;;;;;14.20;2.97;;;10.80;81.40;;;;;;5020927;28;20515;-77
2024/01/03 07:49:19;;;;;;;12.43;2.07;;;10.80;81.40;;;;;;4998169;28;20456;-78
2024/01/03 07:51:49;;;;;;;7.57;1.93;;;10.90;81.30;;;;;;5000155;28;20457;-78
2024/01/03 07:54:17;;;;;;;10.60;2.10;;;10.90;81.40;;;;;;5004150;28;20466;-78
2024/01/03 07:56:45;;;;;;;6.97;1.60;;;10.90;81.30;;;;;;5001390;28;20790;-77
2024/01/03 07:59:13;;;;;;;8.00;1.40;;;10.90;81.20;;;;;;5000302;28;20453;-78
2024/01/03 08:01:41;;;;;;;8.70;1.20;;;10.90;81.20;;;;;;5004082;28;20535;-79
2024/01/03 08:04:09;;;;;;;6.80;1.63;;;10.90;81.20;;;;;;5005060;28;20476;-78
2024/01/03 08:06:38;;;;;;;11.80;1.60;;;10.90;81.20;;;;;;5005799;28;20461;-78
2024/01/03 08:09:14;;;;;;;12.90;1.80;;;10.90;81.10;;;;;;5003078;28;20591;-78
2024/01/03 08:11:42;;;;;;;8.07;1.47;;;10.90;81.10;;;;;;4997714;28;20460;-78
2024/01/03 08:14:10;;;;;;;8.20;1.80;;;11.00;81.00;;;;;;5009535;28;20488;-78
2024/01/03 08:16:39;;;;;;;9.07;1.80;;;11.00;81.00;;;;;;5002435;28;20453;-79
2024/01/03 08:19:07;;;;;;;8.50;1.40;;;11.00;80.90;;;;;;5002742;28;20452;-79
2024/01/03 08:21:40;;;;;;;6.10;1.20;;;11.00;81.00;;;;;;5000322;28;20460;-79
2024/01/03 08:24:10;;;;;;;8.30;1.60;;;11.00;81.00;;;;;;5006118;28;20506;-78
2024/01/03 08:26:40;;;;;;;5.27;0.90;;;11.00;81.00;;;;;;5010377;28;20476;-79
2024/01/03 08:29:11;;;;;;;6.90;1.50;;;11.00;81.10;;;;;;5005150;28;20479;-79
2024/01/03 08:31:39;;;;;;;10.90;1.60;;;11.00;81.00;;;;;;5006406;28;20472;-79
2024/01/03 08:34:07;;;;;;;7.80;1.37;;;11.00;81.10;;;;;;5007252;28;20461;-79
2024/01/03 08:36:46;;;;;;;6.17;1.67;;;11.00;81.20;;;;;;5011358;28;20961;-78
2024/01/03 08:39:15;;;;;;;5.70;1.03;;;11.00;81.30;;;;;;5020423;28;21024;-78
2024/01/03 08:41:43;;;;;;;6.40;1.50;;;11.00;81.40;;;;;;5020592;28;20498;-78
2024/01/03 08:44:11;;;;;;;5.60;1.13;;;11.00;81.40;;;;;;5008082;28;20574;-78
2024/01/03 08:46:42;;;;;;;6.13;1.53;;;11.00;81.50;;;;;;5005304;28;20462;-78
2024/01/03 08:49:12;;;;;;;9.07;1.67;;;11.10;81.60;;;;;;5006987;28;20464;-78
2024/01/03 08:51:44;;;;;;;5.23;1.07;;;11.00;81.60;;;;;;5003778;28;20548;-78
2024/01/03 08:54:13;;;;;;;7.07;1.20;;;11.10;81.70;;;;;;5004005;28;20452;-77
2024/01/03 08:56:41;;;;;;;5.37;1.30;;;11.10;81.70;;;;;;5003649;28;20467;-77
2024/01/03 08:59:10;;;;;;;9.47;1.50;;;11.10;81.70;;;;;;5008038;28;20467;-78
2024/01/03 09:01:37;;;;;;;7.73;1.47;;;11.10;81.80;;;;;;5003338;28;20956;-77
2024/01/03 09:04:07;;;;;;;7.17;1.23;;;11.10;81.90;;;;;;5016366;28;20559;-79
2024/01/03 09:06:35;;;;;;;7.23;1.30;;;11.10;82.00;;;;;;5008221;28;20493;-78
2024/01/03 09:09:04;;;;;;;6.07;1.20;;;11.10;82.00;;;;;;5007473;28;20450;-78
2024/01/03 09:11:34;;;;;;;7.10;1.47;;;11.10;82.00;;;;;;5007468;28;20488;-78
2024/01/03 09:14:02;;;;;;;5.50;1.20;;;11.10;82.10;;;;;;5007331;28;20550;-79
2024/01/03 09:16:32;;;;;;;13.77;2.27;;;11.10;82.20;;;;;;5005082;28;20461;-78
2024/01/03 09:19:02;;;;;;;8.43;2.07;;;11.10;82.20;;;;;;5003840;28;20467;-78
2024/01/03 09:21:32;;;;;;;9.10;1.50;;;11.10;82.20;;;;;;5005470;28;20469;-77
2024/01/03 09:24:04;;;;;;;6.73;1.67;;;11.10;82.30;;;;;;5003353;28;20831;-77
2024/01/03 09:26:33;;;;;;;8.00;1.40;;;11.10;82.30;;;;;;5017939;28;20503;-77
2024/01/03 09:29:01;;;;;;;9.87;1.83;;;11.00;82.40;;;;;;4997069;28;20482;-77
2024/01/03 09:31:31;;;;;;;6.33;1.30;;;11.00;82.60;;;;;;5002587;28;20477;-76
2024/01/03 09:33:59;;;;;;;8.87;1.50;;;11.00;82.60;;;;;;5005821;28;20481;-79
2024/01/03 09:36:27;;;;;;;8.30;2.27;;;11.00;82.70;;;;;;5020347;28;20777;-79
2024/01/03 09:38:56;;;;;;;20.20;2.10;;;11.00;82.80;;;;;;5007864;28;20456;-79
2024/01/03 09:41:24;;;;;;;6.40;1.53;;;10.90;83.00;;;;;;5005158;28;20468;-77
2024/01/03 09:43:55;;;;;;;7.87;1.80;;;11.00;83.00;;;;;;5005383;28;20484;-77
2024/01/03 09:46:23;;;;;;;8.47;1.87;;;11.00;83.10;;;;;;5004110;28;20450;-77
2024/01/03 09:48:52;;;;;;;8.53;1.33;;;11.00;83.20;;;;;;5000629;28;20539;-77
2024/01/03 09:51:21;;;;;;;5.57;2.20;;;11.00;83.20;;;;;;4999028;28;20449;-77
2024/01/03 09:53:53;;;;;;;4.80;1.13;;;11.00;83.20;;;;;;5006704;28;20455;-78
2024/01/03 09:56:22;;;;;;;4.90;1.17;;;11.00;83.20;;;;;;5023400;28;20452;-78
2024/01/03 09:58:50;;;;;;;6.17;1.27;;;11.10;83.10;;;;;;5008408;28;20457;-78
2024/01/03 10:01:20;;;;;;;5.50;1.37;;;11.10;83.10;;;;;;5002721;28;20484;-79
2024/01/03 10:03:50;;;;;;;5.27;1.10;;;11.10;83.20;;;;;;5003133;28;20469;-79
2024/01/03 10:06:18;;;;;;;5.20;1.10;;;11.10;83.10;;;;;;5003718;28;20484;-78
2024/01/03 10:08:59;;;;;;;4.93;1.63;;;11.10;83.10;;;;;;5001923;28;20461;-79
2024/01/03 10:11:28;;;;;;;5.60;1.03;;;11.10;83.20;;;;;;5000308;28;20470;-79
2024/01/03 10:13:58;;;;;;;5.97;1.47;;;11.10;83.20;;;;;;5002925;28;20552;-79
2024/01/03 10:16:28;;;;;;;5.00;1.40;;;11.10;83.40;;;;;;5004986;28;20809;-78
2024/01/03 10:19:09;;;;;;;6.33;1.20;;;11.10;83.50;;;;;;5020853;28;20544;-78
2024/01/03 10:21:40;;;;;;;5.80;1.47;;;11.10;83.50;;;;;;5003271;28;21101;-77
2024/01/03 10:24:10;;;;;;;7.33;0.97;;;11.20;83.50;;;;;;5001750;28;20986;-75
2024/01/03 10:26:39;;;;;;;3.80;1.00;;;11.10;83.60;;;;;;5004502;28;20461;-76
2024/01/03 10:29:12;;;;;;;6.00;1.00;;;11.20;83.60;;;;;;5003527;28;20452;-76
2024/01/03 10:31:42;;;;;;;5.53;1.30;;;11.20;83.60;;;;;;5018505;28;20469;-77
2024/01/03 10:34:15;;;;;;;4.30;1.10;;;11.20;83.60;;;;;;5003508;28;20463;-76
2024/01/03 10:36:45;;;;;;;8.23;1.13;;;11.20;83.60;;;;;;5002475;28;20464;-76
2024/01/03 10:39:17;;;;;;;7.83;1.10;;;11.20;83.60;;;;;;5003722;28;21015;-76
2024/01/03 10:41:47;;;;;;;5.97;1.20;;;11.20;83.60;;;;;;5001392;28;21471;-76
2024/01/03 10:44:17;;;;;;;4.80;1.20;;;11.20;83.50;;;;;;5002798;28;20487;-76
2024/01/03 10:46:47;;;;;;;5.17;1.50;;;11.30;83.50;;;;;;5006561;28;20452;-75
2024/01/03 10:49:15;;;;;;;7.60;2.20;;;11.30;83.40;;;;;;5004168;28;20446;-75
2024/01/03 10:51:45;;;;;;;12.83;1.73;;;11.30;83.40;;;;;;5004342;28;20526;-76
2024/01/03 10:54:18;;;;;;;6.50;1.10;;;11.30;83.30;;;;;;5004760;28;20554;-76
2024/01/03 10:56:49;;;;;;;5.67;1.20;;;11.30;83.10;;;;;;5001397;28;20458;-75
2024/01/03 10:59:18;;;;;;;5.67;1.43;;;11.30;82.90;;;;;;5004413;28;20456;-75
2024/01/03 11:01:56;;;;;;;8.13;1.20;;;11.30;82.80;;;;;;4999969;28;20479;-75
2024/01/03 11:04:33;;;;;;;6.90;1.17;;;11.30;82.70;;;;;;4997606;28;20564;-75
2024/01/03 11:07:09;;;;;;;7.53;2.63;;;11.30;82.50;;;;;;4999987;28;20463;-75
2024/01/03 11:09:38;;;;;;;4.80;1.20;;;11.30;82.30;;;;;;5005690;28;20468;-75
2024/01/03 11:12:07;;;;;;;5.53;1.20;;;11.40;82.20;;;;;;5003286;28;20453;-77
2024/01/03 11:14:48;;;;;;;5.67;1.30;;;11.40;82.10;;;;;;5010961;28;20460;-79
2024/01/03 11:17:33;;;;;;;5.07;1.00;;;11.40;82.10;;;;;;5013660;28;20463;-79
2024/01/03 11:20:09;;;;;;;5.30;1.00;;;11.50;82.00;;;;;;5004626;28;20492;-79
2024/01/03 11:22:55;;;;;;;9.20;1.17;;;11.50;81.90;;;;;;5014470;28;20491;-79
2024/01/03 11:25:48;;;;;;;5.33;1.00;;;11.50;81.70;;;;;;5006303;28;20534;-79
2024/01/03 11:28:33;;;;;;;5.70;0.90;;;11.50;81.50;;;;;;5007376;28;20483;-79
2024/01/03 11:31:01;;;;;;;9.03;1.30;;;11.60;81.10;;;;;;5005269;28;20489;-79
2024/01/03 11:33:31;;;;;;;6.30;1.07;;;11.60;81.10;;;;;;5026333;28;20468;-79
2024/01/03 11:36:01;;;;;;;6.50;1.00;;;11.60;81.00;;;;;;5016273;28;20483;-79
2024/01/03 11:38:39;;;;;;;5.40;1.07;;;11.60;80.90;;;;;;5026068;28;20457;-79
2024/01/03 11:41:10;;;;;;;6.60;1.27;;;11.60;80.70;;;;;;4997781;28;20552;-80
2024/01/03 11:43:42;;;;;;;6.73;1.20;;;11.70;80.40;;;;;;5021430;28;20464;-79
2024/01/03 11:46:16;;;;;;;5.13;0.97;;;11.70;80.10;;;;;;5005857;28;21007;-80
2024/01/03 11:48:47;;;;;;;5.73;1.27;;;11.70;80.20;;;;;;5003887;28;20449;-79
2024/01/03 11:51:23;;;;;;;5.97;1.10;;;11.70;80.20;;;;;;5002700;28;20464;-80
2024/01/03 11:54:02;;;;;;;5.60;1.20;;;11.80;79.90;;;;;;5010569;28;20509;-79
2024/01/03 11:56:33;;;;;;;5.50;1.37;;;11.80;79.80;;;;;;5006146;28;20566;-79
2024/01/03 11:59:03;;;;;;;7.40;1.37;;;11.80;79.40;;;;;;5009952;28;21142;-79
2024/01/03 12:01:31;;;;;;;4.97;1.33;;;11.80;79.30;;;;;;5014010;28;20516;-79
2024/01/03 12:04:12;;;;;;;4.80;0.97;;;11.80;79.00;;;;;;5013349;28;20452;-78
2024/01/03 12:06:44;;;;;;;8.90;1.40;;;11.70;78.90;;;;;;5023526;28;20476;-80
2024/01/03 12:09:17;;;;;;;8.47;1.47;;;11.70;78.90;;;;;;5024383;28;20453;-80
2024/01/03 12:11:47;;;;;;;5.83;1.10;;;11.70;79.00;;;;;;5011972;28;20456;-80
2024/01/03 12:14:17;;;;;;;8.50;1.27;;;11.70;78.90;;;;;;5005164;28;20453;-81
2024/01/03 12:16:53;;;;;;;9.90;1.80;;;11.70;78.80;;;;;;5012957;28;20536;-81
2024/01/03 12:19:27;;;;;;;4.03;1.20;;;11.70;78.80;;;;;;5011489;28;20452;-81
2024/01/03 12:21:56;;;;;;;7.60;1.60;;;11.70;78.70;;;;;;5011577;28;20461;-79
2024/01/03 12:24:38;;;;;;;6.23;1.43;;;11.70;78.70;;;;;;5023539;28;20459;-80
2024/01/03 12:27:20;;;;;;;7.80;1.33;;;11.70;78.60;;;;;;5009176;28;21005;-80
2024/01/03 12:29:48;;;;;;;4.93;1.13;;;11.70;78.60;;;;;;5007889;28;20449;-79
2024/01/03 12:32:19;;;;;;;9.97;1.70;;;11.70;78.60;;;;;;5021344;28;20472;-80
2024/01/03 12:35:01;;;;;;;6.03;1.60;;;11.70;78.60;;;;;;5008947;28;20448;-80
2024/01/03 12:37:29;;;;;;;8.77;1.83;;;11.70;78.70;;;;;;5023167;28;20465;-79
2024/01/03 12:39:58;;;;;;;5.53;1.20;;;11.70;78.80;;;;;;5012512;28;20456;-79
2024/01/03 12:42:26;;;;;;;7.83;1.87;;;11.70;78.80;;;;;;5010507;28;20464;-78
2024/01/03 12:45:09;;;;;;;11.30;1.40;;;11.70;78.80;;;;;;5009257;28;20574;-78
2024/01/03 12:47:37;;;;;;;7.97;1.27;;;11.80;78.80;;;;;;5007469;28;20456;-78
2024/01/03 12:50:08;;;;;;;5.47;1.00;;;11.80;78.90;;;;;;5023874;28;20452;-80
2024/01/03 12:52:37;;;;;;;8.47;1.43;;;11.80;78.90;;;;;;5009078;28;20453;-80
2024/01/03 12:55:14;;;;;;;9.90;1.07;;;11.80;78.90;;;;;;5011424;28;20466;-80
2024/01/03 12:57:44;;;;;;;9.83;1.97;;;11.80;78.90;;;;;;5007317;28;20453;-81
2024/01/03 13:00:24;;;;;;;6.60;1.27;;;11.80;78.90;;;;;;5010942;28;20464;-81